KR-0457 weather

Axel Towers Apartments Heliports
Busan, Busan Gwang'yeogsi, South Korea

Public forecast

Using degrees Celsius for public forecast. Weather courtesy of forecast.io.

METAR (pilot weather report)

Closest report is Gimhae International Airport, 8.6 nm (15.9 km) WNW. Retrieved 2019/08/19 14:00 UTC (3 minutes ago):

RKPK 191400Z 36008KT 8000 NSC 26/22 Q1009

TAF (pilot weather forecast)

Closest forecast is Gimhae International Airport, 8.6 nm (15.9 km) WNW. Retrieved 2019/08/19 12:00 UTC (2 hours ago):

TAF RKPK 191100Z 1912/2018 06006KT 9000 FEW030 BKN200 TN24/1920Z TX30/2005Z BECMG 1916/1917 03008KT 4800 BR SCT030 BKN200 BECMG 1920/1921 3200 BECMG 2000/2001 4800 SCT030 SCT200 BECMG 2002/2003 9000 NSW